Terminal Aerodrome Forecast
Issued by NWS

Home | Current Version | Previous Version | Text Only | Print | Product List | Glossary On
Versions: 1 2 3 4 5 6 7 8 9 10 11 12 13 14
000
FTUS42 TJSJ 261124
TAFJSJ
TAF
TJSJ 261124Z 2612/2712 09005KT P6SM VCSH SCT030
     FM261330 06015KT P6SM VCSH SCT020 SCT030 SCT045
     FM262300 07009KT P6SM SCT030=

USA.gov is the U.S. government's official web portal to all federal, state and local government web resources and services.